Hovedside
METAR-TAF:

METAR-TAF

Lufthavner :

Berlevåg, Norge

Berlevåg lufthavn

breddegrad: 70-52N, lengdegrad: 029-02E, høyde over havet: 1 m

Gjeldene værobservasjon

Denne rapporten ble laget for 9 timer og 6 minutter siden, klokken 11:50 UTC
Vind 28 kt fra Vest-sørvest
Temperatur 2°C
Luftfuktighet 75%
Trykk 977 hPa
Sikt 10 km eller mer
Få skyer i en høyde av 1400 ft
Spredte skyer i en høyde av 2500 ft

METAR: ENBV 261150Z 25028KT 9999 FEW014 SCT025 02/M02 Q0977

Tid: 22:56 (20:56 UTC)


TAF: fraværende

Værobservasjoner og værvarsel for over 4000 flyplasser (METAR- og TAF-rapporter).

Tilgjengelige stasjoner er representert av de røde og gule prikkene på kartet.

Hold musepekeren over prikken for å se navnet på stasjonen.

Klikk så for å se værobservasjoner og -varsler.

For å forandre kartet kan du klikke på den grønne knappen med svart kryss for å zoome inn, på den grønne knappen med strek for å zoome ut, eller på de grønne pilene for å se tilstøtende kart.


METAR-TAF: